Ai Maru — JD2031 — position and weather

sailwx.info

Track history (hours):
 
Tides and Currents Weather Stations Pressure Air Temp Water Temp Dewpoint Dewpoint Depression Visibility Wind Speed Wind Dir Waves Ship Positions

Ai Maru

Last reported at 2017-Oct-20 05:00 UTC. Time now 2017-Oct-20 05:31 UTC.
Position N 35°28' E 139°48'.

Length 105 m; draft 5.3 m.

Type: Tanker. MMSI: 431501797.

Date/timePositionNaut miles runAvg speedWind from/ knotsBaromVisibWave heightAir tempDewpointWater temp
2017-Oct-20 05:00N 35°28' E 139°48'5 9.8
2017-Oct-20 04:30N 35°30' E 139°54'6 1.7
2017-Oct-20 01:06N 35°29' E 140°01'0 4.0
2017-Oct-20 01:00N 35°29' E 140°00'3 1.0
2017-Oct-19 22:21N 35°31' E 139°58'2 6.2
2017-Oct-19 22:00N 35°29' E 139°60'2 0.9
2017-Oct-19 19:15N 35°31' E 139°57'0 0.3
2017-Oct-19 18:59N 35°31' E 139°57'5 9.2
2017-Oct-19 18:30N 35°29' E 139°53'613.2
2017-Oct-19 18:00N 35°25' E 139°47'612.2
2017-Oct-19 17:31N 35°19' E 139°44'612.1
2017-Oct-19 17:01N 35°13' E 139°47'612.3
2017-Oct-19 16:31N 35°07' E 139°45'713.0
2017-Oct-19 16:01N 35°01' E 139°43'611.8
2017-Oct-19 15:30N 34°55' E 139°44'712.8
2017-Oct-19 14:55N 34°51' E 139°52'613.6
2017-Oct-19 14:28N 34°53' E 139°59'  
2017-Oct-15 19:41N 34°51' E 139°46'313.8
2017-Oct-15 19:29N 34°51' E 139°42'713.5
2017-Oct-15 18:57N 34°51' E 139°34'230 4.5
2017-Oct-13 15:16N 34°08' E 134°59'414.6
2017-Oct-13 15:00N 34°12' E 134°59'1014.8
2017-Oct-13 14:20N 34°22' E 135°00'514.8
2017-Oct-13 14:00N 34°24' E 135°05'815.1
2017-Oct-13 13:30N 34°28' E 135°13'714.8
2017-Oct-13 13:00N 34°32' E 135°20'4 0.3
2017-Oct-13 00:20N 34°32' E 135°25'0 0.0
2017-Oct-12 23:50N 34°32' E 135°25'0 0.0
2017-Oct-12 23:14N 34°32' E 135°25'0 0.0
2017-Oct-12 22:56N 34°32' E 135°25'0 0.3
2017-Oct-12 22:30N 34°32' E 135°25'3 5.2
2017-Oct-12 22:00N 34°33' E 135°22'2 3.2
2017-Oct-12 21:14N 34°32' E 135°19'0 0.0
2017-Oct-12 20:56N 34°32' E 135°19'0 0.0
2017-Oct-12 20:26N 34°32' E 135°19'0 0.0
2017-Oct-12 19:56N 34°32' E 135°19'0 0.0
2017-Oct-12 19:14N 34°32' E 135°19'0 0.0
2017-Oct-12 18:02N 34°32' E 135°19'0 0.0
2017-Oct-12 17:38N 34°32' E 135°19'0 0.0
2017-Oct-12 17:20N 34°32' E 135°19'0 0.0
2017-Oct-12 16:44N 34°32' E 135°19'0 0.0
2017-Oct-12 16:26N 34°32' E 135°19'0 0.0
2017-Oct-12 15:44N 34°32' E 135°19'0 0.0
2017-Oct-12 15:20N 34°32' E 135°19'0 0.0
2017-Oct-12 14:56N 34°32' E 135°19'0 0.0
2017-Oct-12 14:26N 34°32' E 135°19'0 0.0
2017-Oct-12 13:56N 34°32' E 135°19'1 1.7
2017-Oct-12 13:15N 34°31' E 135°18'0 0.2
2017-Oct-12 12:57N 34°31' E 135°18'0 0.1
2017-Oct-12 12:27N 34°31' E 135°18'0 0.0
2017-Oct-12 11:09N 34°31' E 135°18'0 0.0
2017-Oct-12 10:45N 34°31' E 135°18'0 0.2
2017-Oct-12 10:27N 34°31' E 135°18'1 2.3
2017-Oct-12 09:59N 34°32' E 135°19'0 0.0
2017-Oct-12 09:30N 34°32' E 135°19'0 0.0
2017-Oct-12 08:59N 34°32' E 135°19'0 0.0
2017-Oct-12 08:30N 34°32' E 135°19'0 0.2
2017-Oct-12 08:00N 34°32' E 135°19'4 8.1
2017-Oct-12 07:30N 34°34' E 135°15'510.7
2017-Oct-12 07:00N 34°37' E 135°10'2 2.8
2017-Oct-12 06:19N 34°39' E 135°08'0 0.0
2017-Oct-12 05:49N 34°39' E 135°08'0 0.0
2017-Oct-12 04:55N 34°39' E 135°08'0 0.0
2017-Oct-12 04:19N 34°39' E 135°08'0 0.0
2017-Oct-12 03:55N 34°39' E 135°08'0 0.0
2017-Oct-12 03:19N 34°39' E 135°08'0 0.0
2017-Oct-12 02:55N 34°39' E 135°08'0 0.0
2017-Oct-12 02:19N 34°39' E 135°08'0 0.0
2017-Oct-12 01:49N 34°39' E 135°08'0 0.0
2017-Oct-12 01:25N 34°39' E 135°08'0 1.0
2017-Oct-12 01:00N 34°38' E 135°08'0 0.7
2017-Oct-12 00:19N 34°38' E 135°08'0 0.0
2017-Oct-11 23:49N 34°38' E 135°08'0 0.0
2017-Oct-11 23:19N 34°38' E 135°08'0 0.0
2017-Oct-11 22:55N 34°38' E 135°08'0 0.2
2017-Oct-11 22:30N 34°38' E 135°08'5 9.3
2017-Oct-11 22:00N 34°33' E 135°06'611.2
2017-Oct-11 21:30N 34°28' E 135°04'511.1
2017-Oct-11 21:00N 34°23' E 135°02'710.6
2017-Oct-11 20:23N 34°17' E 134°59'4 9.6
2017-Oct-11 20:00N 34°13' E 134°59'611.2
2017-Oct-11 19:30N 34°07' E 134°60'  
Track history (hours):
 
Tides and Currents Weather Stations Pressure Air Temp Water Temp Dewpoint Dewpoint Depression Visibility Wind Speed Wind Dir Waves Ship Positions

Ai Maru

Last reported at 2017-Oct-20 05:00 UTC. Time now 2017-Oct-20 05:31 UTC.
Position N 35°28' E 139°48'.

Length 105 m; draft 5.3 m.

Type: Tanker. MMSI: 431501797.

Date/timePositionNaut miles runAvg speedWind from/ knotsBaromVisibWave heightAir tempDewpointWater temp
2017-Oct-20 05:00N 35°28' E 139°48'5 9.8
2017-Oct-20 04:30N 35°30' E 139°54'6 1.7
2017-Oct-20 01:06N 35°29' E 140°01'0 4.0
2017-Oct-20 01:00N 35°29' E 140°00'3 1.0
2017-Oct-19 22:21N 35°31' E 139°58'2 6.2
2017-Oct-19 22:00N 35°29' E 139°60'2 0.9
2017-Oct-19 19:15N 35°31' E 139°57'0 0.3
2017-Oct-19 18:59N 35°31' E 139°57'5 9.2
2017-Oct-19 18:30N 35°29' E 139°53'613.2
2017-Oct-19 18:00N 35°25' E 139°47'612.2
2017-Oct-19 17:31N 35°19' E 139°44'612.1
2017-Oct-19 17:01N 35°13' E 139°47'612.3
2017-Oct-19 16:31N 35°07' E 139°45'713.0
2017-Oct-19 16:01N 35°01' E 139°43'611.8
2017-Oct-19 15:30N 34°55' E 139°44'712.8
2017-Oct-19 14:55N 34°51' E 139°52'613.6
2017-Oct-19 14:28N 34°53' E 139°59'  
2017-Oct-15 19:41N 34°51' E 139°46'313.8
2017-Oct-15 19:29N 34°51' E 139°42'713.5
2017-Oct-15 18:57N 34°51' E 139°34'230 4.5
2017-Oct-13 15:16N 34°08' E 134°59'414.6
2017-Oct-13 15:00N 34°12' E 134°59'1014.8
2017-Oct-13 14:20N 34°22' E 135°00'514.8
2017-Oct-13 14:00N 34°24' E 135°05'815.1
2017-Oct-13 13:30N 34°28' E 135°13'714.8
2017-Oct-13 13:00N 34°32' E 135°20'4 0.3
2017-Oct-13 00:20N 34°32' E 135°25'0 0.0
2017-Oct-12 23:50N 34°32' E 135°25'0 0.0
2017-Oct-12 23:14N 34°32' E 135°25'0 0.0
2017-Oct-12 22:56N 34°32' E 135°25'0 0.3
2017-Oct-12 22:30N 34°32' E 135°25'3 5.2
2017-Oct-12 22:00N 34°33' E 135°22'2 3.2
2017-Oct-12 21:14N 34°32' E 135°19'0 0.0
2017-Oct-12 20:56N 34°32' E 135°19'0 0.0
2017-Oct-12 20:26N 34°32' E 135°19'0 0.0
2017-Oct-12 19:56N 34°32' E 135°19'0 0.0
2017-Oct-12 19:14N 34°32' E 135°19'0 0.0
2017-Oct-12 18:02N 34°32' E 135°19'0 0.0
2017-Oct-12 17:38N 34°32' E 135°19'0 0.0
2017-Oct-12 17:20N 34°32' E 135°19'0 0.0
2017-Oct-12 16:44N 34°32' E 135°19'0 0.0
2017-Oct-12 16:26N 34°32' E 135°19'0 0.0
2017-Oct-12 15:44N 34°32' E 135°19'0 0.0
2017-Oct-12 15:20N 34°32' E 135°19'0 0.0
2017-Oct-12 14:56N 34°32' E 135°19'0 0.0
2017-Oct-12 14:26N 34°32' E 135°19'0 0.0
2017-Oct-12 13:56N 34°32' E 135°19'1 1.7
2017-Oct-12 13:15N 34°31' E 135°18'0 0.2
2017-Oct-12 12:57N 34°31' E 135°18'0 0.1
2017-Oct-12 12:27N 34°31' E 135°18'0 0.0
2017-Oct-12 11:09N 34°31' E 135°18'0 0.0
2017-Oct-12 10:45N 34°31' E 135°18'0 0.2
2017-Oct-12 10:27N 34°31' E 135°18'1 2.3
2017-Oct-12 09:59N 34°32' E 135°19'0 0.0
2017-Oct-12 09:30N 34°32' E 135°19'0 0.0
2017-Oct-12 08:59N 34°32' E 135°19'0 0.0
2017-Oct-12 08:30N 34°32' E 135°19'0 0.2
2017-Oct-12 08:00N 34°32' E 135°19'4 8.1
2017-Oct-12 07:30N 34°34' E 135°15'510.7
2017-Oct-12 07:00N 34°37' E 135°10'2 2.8
2017-Oct-12 06:19N 34°39' E 135°08'0 0.0
2017-Oct-12 05:49N 34°39' E 135°08'0 0.0
2017-Oct-12 04:55N 34°39' E 135°08'0 0.0
2017-Oct-12 04:19N 34°39' E 135°08'0 0.0
2017-Oct-12 03:55N 34°39' E 135°08'0 0.0
2017-Oct-12 03:19N 34°39' E 135°08'0 0.0
2017-Oct-12 02:55N 34°39' E 135°08'0 0.0
2017-Oct-12 02:19N 34°39' E 135°08'0 0.0
2017-Oct-12 01:49N 34°39' E 135°08'0 0.0
2017-Oct-12 01:25N 34°39' E 135°08'0 1.0
2017-Oct-12 01:00N 34°38' E 135°08'0 0.7
2017-Oct-12 00:19N 34°38' E 135°08'0 0.0
2017-Oct-11 23:49N 34°38' E 135°08'0 0.0
2017-Oct-11 23:19N 34°38' E 135°08'0 0.0
2017-Oct-11 22:55N 34°38' E 135°08'0 0.2
2017-Oct-11 22:30N 34°38' E 135°08'5 9.3
2017-Oct-11 22:00N 34°33' E 135°06'611.2
2017-Oct-11 21:30N 34°28' E 135°04'511.1
2017-Oct-11 21:00N 34°23' E 135°02'710.6
2017-Oct-11 20:23N 34°17' E 134°59'4 9.6
2017-Oct-11 20:00N 34°13' E 134°59'611.2
2017-Oct-11 19:30N 34°07' E 134°60'  

Dump ship's entire track history